METAR Data
IDs: Format: Raw Decoded Include TAF

Data at: 2058 UTC 25 Oct 2021

ETOU 251956Z AUTO 00000KT 9999 SCT037 BKN130 OVC150 07/03 A3012 RMK AO2 RAB16E25RAB25E25 SLP208 P0000 T00650028